createdAt,value
2022-11-04T00:02:36.809Z,99170.94
2022-11-04T00:05:26.736Z,99187.16
2022-11-04T00:08:27.376Z,99199.56
2022-11-04T00:11:33.487Z,99194.03
2022-11-04T00:14:22.252Z,99184.00
2022-11-04T00:17:21.769Z,99192.53
2022-11-04T00:20:30.162Z,99191.81
2022-11-04T00:23:37.307Z,99140.63
2022-11-04T00:26:43.108Z,99199.09
2022-11-04T00:29:31.667Z,99210.75
2022-11-04T00:32:37.427Z,99226.66
2022-11-04T00:35:25.948Z,99248.59
2022-11-04T00:38:14.372Z,99242.88
2022-11-04T00:41:24.163Z,99245.56
2022-11-04T00:44:12.570Z,99236.56
2022-11-04T00:47:00.968Z,99242.06
2022-11-04T00:49:49.528Z,99243.00
2022-11-04T00:52:38.119Z,99233.66
2022-11-04T00:55:26.594Z,99240.63
2022-11-04T00:58:16.354Z,99240.19
2022-11-04T01:01:09.213Z,99226.00
2022-11-04T01:03:57.969Z,99248.38
2022-11-04T01:06:46.410Z,99246.84
2022-11-04T01:09:34.792Z,99237.25
2022-11-04T01:12:25.614Z,99239.38
2022-11-04T01:15:15.442Z,99239.84
2022-11-04T01:18:04.134Z,99240.31
2022-11-04T01:20:52.610Z,99244.25
2022-11-04T01:23:41.741Z,99240.25
2022-11-04T01:26:30.616Z,99247.88
2022-11-04T01:29:19.088Z,99248.56
2022-11-04T01:32:08.853Z,99247.66
2022-11-04T01:34:57.255Z,99237.56
2022-11-04T01:37:45.675Z,99239.47
2022-11-04T01:40:37.481Z,99251.59
2022-11-04T01:43:44.176Z,99240.72
2022-11-04T01:46:38.199Z,99215.47
2022-11-04T01:49:30.211Z,99245.88
2022-11-04T01:52:21.225Z,99234.63
2022-11-04T01:55:13.776Z,99243.13
2022-11-04T01:58:04.390Z,99221.88
2022-11-04T02:00:52.922Z,99240.09
2022-11-04T02:03:46.815Z,99240.56
2022-11-04T02:06:36.707Z,99230.88
2022-11-04T02:09:26.584Z,99239.16
2022-11-04T02:12:33.484Z,99250.94
2022-11-04T02:15:26.993Z,99232.72
2022-11-04T02:18:27.245Z,99233.88
2022-11-04T02:21:51.081Z,99226.31
2022-11-04T02:25:03.224Z,99231.44
2022-11-04T02:28:07.409Z,99231.31
2022-11-04T02:31:01.682Z,99213.00
2022-11-04T02:33:55.291Z,99200.91
2022-11-04T02:36:47.076Z,99231.16
2022-11-04T02:39:39.484Z,99242.69
2022-11-04T02:42:31.991Z,99228.22
2022-11-04T02:45:23.690Z,99209.53
2022-11-04T02:48:21.718Z,99218.72
2022-11-04T02:51:13.517Z,99217.53
2022-11-04T02:54:06.215Z,99206.22
2022-11-04T02:56:57.397Z,99238.84
2022-11-04T02:59:47.720Z,99231.41
2022-11-04T03:02:40.509Z,99218.22
2022-11-04T03:05:33.978Z,99221.59
2022-11-04T03:08:28.494Z,99239.09
2022-11-04T03:11:18.787Z,99232.91
2022-11-04T03:14:09.554Z,99237.00
2022-11-04T03:17:00.774Z,99220.34
2022-11-04T03:19:55.287Z,99209.94
2022-11-04T03:22:45.061Z,99220.03
2022-11-04T03:25:35.356Z,99233.16
2022-11-04T03:28:32.944Z,99243.44
2022-11-04T03:31:24.015Z,99223.25
2022-11-04T03:34:12.462Z,99222.66
2022-11-04T03:37:01.028Z,99225.78
2022-11-04T03:39:50.814Z,99240.47
2022-11-04T03:42:43.333Z,99248.06
2022-11-04T03:45:32.158Z,99254.56
2022-11-04T03:48:20.594Z,99255.44
2022-11-04T03:51:09.953Z,99259.25
2022-11-04T03:53:58.965Z,99253.06
2022-11-04T03:57:03.398Z,99270.88
2022-11-04T04:00:09.118Z,99275.25
2022-11-04T04:03:03.262Z,99281.38
2022-11-04T04:05:55.093Z,99261.03
2022-11-04T04:08:45.519Z,99258.22
2022-11-04T04:11:46.069Z,99252.69
2022-11-04T04:14:40.239Z,99249.50
2022-11-04T04:17:33.482Z,99244.66
2022-11-04T04:20:23.279Z,99245.53
2022-11-04T04:23:28.525Z,99248.88
2022-11-04T04:26:35.129Z,99251.56
2022-11-04T04:29:24.130Z,99226.31
2022-11-04T04:32:14.538Z,99229.91
2022-11-04T04:35:20.690Z,99227.09
2022-11-04T04:38:33.266Z,99247.53
2022-11-04T04:41:41.259Z,99245.38
2022-11-04T04:44:47.579Z,99242.16
2022-11-04T04:47:41.936Z,99252.41
2022-11-04T04:50:32.949Z,99244.00
2022-11-04T04:53:21.377Z,99231.00
2022-11-04T04:56:09.889Z,99233.13
2022-11-04T04:58:58.355Z,99229.03
2022-11-04T05:01:46.954Z,99237.50
2022-11-04T05:04:36.816Z,99226.22
2022-11-04T05:07:25.291Z,99229.31
2022-11-04T05:10:15.568Z,99224.63
2022-11-04T05:13:21.614Z,99144.13
2022-11-04T05:16:11.781Z,99172.22
2022-11-04T05:19:00.206Z,99208.69
2022-11-04T05:21:49.994Z,99205.63
2022-11-04T05:24:38.421Z,99196.63
2022-11-04T05:27:26.847Z,99187.97
2022-11-04T05:30:15.321Z,99174.66
2022-11-04T05:33:05.332Z,99176.13
2022-11-04T05:35:53.912Z,99179.22
2022-11-04T05:38:44.173Z,99160.03
2022-11-04T05:41:32.686Z,99190.38
2022-11-04T05:44:21.096Z,99195.28
2022-11-04T05:47:09.500Z,99193.25
2022-11-04T05:49:57.954Z,99190.66
2022-11-04T05:52:46.374Z,99197.81
2022-11-04T05:55:36.184Z,99200.72
2022-11-04T05:58:24.591Z,99203.16
2022-11-04T06:01:15.081Z,99208.34
2022-11-04T06:04:05.170Z,99219.56
2022-11-04T06:06:53.654Z,99230.50
2022-11-04T06:09:42.124Z,99235.28
2022-11-04T06:12:31.897Z,99229.72
2022-11-04T06:15:20.380Z,99228.66
2022-11-04T06:18:08.878Z,99216.34
2022-11-04T06:21:11.534Z,99199.56
2022-11-04T06:24:00.764Z,99203.63
2022-11-04T06:26:49.191Z,99214.88
2022-11-04T06:29:41.038Z,99213.91
2022-11-04T06:32:32.001Z,99216.78
2022-11-04T06:35:20.414Z,99213.25
2022-11-04T06:38:09.119Z,99222.97
2022-11-04T06:40:58.262Z,99219.53
2022-11-04T06:43:46.803Z,99216.47
2022-11-04T06:46:38.833Z,99220.00
2022-11-04T06:49:27.258Z,99228.47
2022-11-04T06:52:15.667Z,99231.97
2022-11-04T06:55:04.259Z,99246.53
2022-11-04T06:57:52.772Z,99247.78
2022-11-04T07:00:41.157Z,99247.78
2022-11-04T07:03:30.942Z,99240.56
2022-11-04T07:06:20.032Z,99236.13
2022-11-04T07:09:08.484Z,99242.81
2022-11-04T07:11:56.927Z,99253.91
2022-11-04T07:14:45.379Z,99255.56
2022-11-04T07:17:33.966Z,99247.38
2022-11-04T07:20:23.738Z,99256.78
2022-11-04T07:23:12.190Z,99261.25
2022-11-04T07:26:01.729Z,99263.47
2022-11-04T07:28:50.189Z,99247.63
2022-11-04T07:31:38.934Z,99255.44
2022-11-04T07:34:28.588Z,99254.59
2022-11-04T07:37:18.424Z,99251.28
2022-11-04T07:40:07.833Z,99252.28
2022-11-04T07:42:56.357Z,99233.16
2022-11-04T07:45:44.944Z,99238.63
2022-11-04T07:48:33.402Z,99236.69
2022-11-04T07:51:22.114Z,99227.66
2022-11-04T07:54:11.939Z,99239.91
2022-11-04T07:57:00.356Z,99233.69
2022-11-04T07:59:48.804Z,99223.59
2022-11-04T08:02:37.393Z,99219.38
2022-11-04T08:05:25.949Z,99224.06
2022-11-04T08:08:14.431Z,99221.16
2022-11-04T08:11:06.224Z,99218.63
2022-11-04T08:13:55.103Z,99215.50
2022-11-04T08:16:43.589Z,99224.47
2022-11-04T08:19:32.359Z,99224.69
2022-11-04T08:22:20.802Z,99212.50
2022-11-04T08:25:11.291Z,99216.28
2022-11-04T08:28:01.423Z,99191.66
2022-11-04T08:30:54.319Z,99211.13
2022-11-04T08:33:43.208Z,99203.72
2022-11-04T08:36:34.341Z,99204.47
2022-11-04T08:39:22.827Z,99214.03
2022-11-04T08:42:11.479Z,99212.91
2022-11-04T08:45:01.278Z,99210.94
2022-11-04T08:47:49.786Z,99157.09
2022-11-04T08:50:38.404Z,99216.25
2022-11-04T08:53:27.213Z,99216.63
2022-11-04T08:56:19.766Z,99215.94
2022-11-04T08:59:09.093Z,99204.34
2022-11-04T09:01:58.952Z,99223.16
2022-11-04T09:04:47.913Z,99229.81
2022-11-04T09:07:37.778Z,99225.81
2022-11-04T09:10:26.362Z,99217.50
2022-11-04T09:13:15.960Z,99227.66
2022-11-04T09:16:04.557Z,99219.97
2022-11-04T09:18:54.354Z,99217.22
2022-11-04T09:21:42.920Z,99223.72
2022-11-04T09:24:31.898Z,99228.72
2022-11-04T09:27:20.354Z,99233.63
2022-11-04T09:30:10.066Z,99242.41
2022-11-04T09:32:58.671Z,99253.63
2022-11-04T09:35:56.890Z,99226.16
2022-11-04T09:38:45.935Z,99267.16
2022-11-04T09:41:52.653Z,99277.44
2022-11-04T09:45:19.302Z,99281.88
2022-11-04T09:47:59.839Z,99282.47
2022-11-04T09:50:50.741Z,99280.50
2022-11-04T09:53:43.582Z,99282.81
2022-11-04T09:56:36.012Z,99279.09
2022-11-04T09:59:27.855Z,99280.94
2022-11-04T10:02:35.775Z,99280.38
2022-11-04T10:05:35.788Z,99278.16
2022-11-04T10:08:44.514Z,99277.09
2022-11-04T10:11:39.124Z,99280.72
2022-11-04T10:14:46.597Z,99269.97
2022-11-04T10:17:47.766Z,99269.13
2022-11-04T10:20:46.530Z,99271.69
2022-11-04T10:23:38.234Z,99257.06
2022-11-04T10:26:33.931Z,99260.56
2022-11-04T10:29:29.000Z,99263.34
2022-11-04T10:32:22.251Z,99263.22
2022-11-04T10:35:19.711Z,99256.28
2022-11-04T10:38:19.793Z,99259.34
2022-11-04T10:41:19.925Z,99257.72
2022-11-04T10:44:14.677Z,99241.25
2022-11-04T10:47:11.230Z,99252.22
2022-11-04T10:50:34.640Z,99254.19
2022-11-04T10:53:25.218Z,99249.59
2022-11-04T10:56:20.337Z,99243.25
2022-11-04T10:59:20.414Z,99240.81
2022-11-04T11:02:09.856Z,99224.41
2022-11-04T11:05:14.637Z,99230.53
2022-11-04T11:08:03.129Z,99248.31
2022-11-04T11:10:53.549Z,99223.00
2022-11-04T11:13:43.651Z,99256.44
2022-11-04T11:16:33.465Z,99258.63
2022-11-04T11:19:24.869Z,99253.69
2022-11-04T11:22:31.510Z,99260.81
2022-11-04T11:25:25.662Z,99257.22
2022-11-04T11:28:22.994Z,99252.25
2022-11-04T11:31:16.634Z,99228.72
2022-11-04T11:34:08.388Z,99240.00
2022-11-04T11:36:57.997Z,99234.91
2022-11-04T11:39:46.410Z,99237.84
2022-11-04T11:42:34.877Z,99224.63
2022-11-04T11:45:25.360Z,99222.38
2022-11-04T11:48:29.338Z,99194.44
2022-11-04T11:51:30.709Z,99213.38
2022-11-04T11:54:24.460Z,99211.59
2022-11-04T11:57:30.803Z,99204.38
2022-11-04T12:00:38.009Z,99195.31
2022-11-04T12:10:09.967Z,99197.66
2022-11-04T12:13:18.288Z,99197.31
2022-11-04T12:16:22.602Z,99189.63
2022-11-04T12:19:21.713Z,99196.97
2022-11-04T12:22:18.001Z,99203.53
2022-11-04T12:25:12.919Z,99196.56
2022-11-04T12:28:08.537Z,99210.13
2022-11-04T12:31:07.007Z,99208.53
2022-11-04T12:34:03.434Z,99206.34
2022-11-04T12:37:05.250Z,99208.72
2022-11-04T12:40:14.024Z,99214.06
2022-11-04T12:43:12.329Z,99190.28
2022-11-04T12:46:08.215Z,99214.16
2022-11-04T12:49:24.763Z,99209.69
2022-11-04T12:52:23.779Z,99214.53
2022-11-04T12:55:32.086Z,99218.69
2022-11-04T12:58:30.848Z,99204.63
2022-11-04T13:01:22.933Z,99212.47
2022-11-04T13:04:13.890Z,99217.06
2022-11-04T13:07:04.396Z,99221.03
2022-11-04T13:09:55.074Z,99224.13
2022-11-04T13:12:46.791Z,99233.63
2022-11-04T13:15:42.627Z,99230.84
2022-11-04T13:18:33.981Z,99234.78
2022-11-04T13:21:25.663Z,99241.63
2022-11-04T13:24:21.307Z,99244.56
2022-11-04T13:27:17.267Z,99257.84
2022-11-04T13:30:13.667Z,99223.81
2022-11-04T13:33:09.943Z,99254.03
2022-11-04T13:36:03.049Z,99259.91
2022-11-04T13:38:54.378Z,99262.44
2022-11-04T13:42:03.283Z,99261.63
2022-11-04T13:44:53.786Z,99251.41
2022-11-04T13:47:50.336Z,99258.28
2022-11-04T13:50:40.429Z,99250.69
2022-11-04T13:53:42.840Z,99272.50
2022-11-04T13:56:35.220Z,99271.81
2022-11-04T13:59:28.803Z,99274.28
2022-11-04T14:02:34.145Z,99270.19
2022-11-04T14:06:07.085Z,99271.50
2022-11-04T14:09:41.029Z,99281.63
2022-11-04T14:12:32.594Z,99277.56
2022-11-04T14:15:54.348Z,99285.00
2022-11-04T14:18:44.325Z,99272.00
2022-11-04T14:22:06.299Z,99282.16
2022-11-04T14:24:59.039Z,99291.13
2022-11-04T14:27:49.283Z,99281.78
2022-11-04T14:30:44.876Z,99287.13
2022-11-04T14:33:36.977Z,99263.56
2022-11-04T14:36:34.491Z,99299.94
2022-11-04T14:39:25.210Z,99308.00
2022-11-04T14:42:15.144Z,99302.72
2022-11-04T14:45:03.681Z,99308.78
2022-11-04T14:47:54.930Z,99305.56
2022-11-04T14:50:44.989Z,99302.28
2022-11-04T14:53:37.810Z,99309.34
2022-11-04T14:56:26.892Z,99303.53
2022-11-04T14:59:22.416Z,99308.78
2022-11-04T15:02:16.132Z,99318.47
2022-11-04T15:05:04.875Z,99325.03
2022-11-04T15:07:53.371Z,99318.84
2022-11-04T15:10:43.234Z,99338.22
2022-11-04T15:13:34.711Z,99335.19
2022-11-04T15:16:26.159Z,99328.88
2022-11-04T15:19:20.705Z,99325.75
2022-11-04T15:22:09.158Z,99334.38
2022-11-04T15:24:59.395Z,99335.66
2022-11-04T15:27:49.233Z,99342.88
2022-11-04T15:30:37.642Z,99345.78
2022-11-04T15:33:27.493Z,99336.34
2022-11-04T15:36:18.580Z,99354.53
2022-11-04T15:39:09.207Z,99335.06
2022-11-04T15:42:17.515Z,99354.84
2022-11-04T15:45:28.531Z,99366.72
2022-11-04T15:48:28.046Z,99362.47
2022-11-04T15:51:19.750Z,99380.81
2022-11-04T15:54:19.746Z,99375.91
2022-11-04T15:57:15.182Z,99382.75
2022-11-04T16:00:08.036Z,99388.59
2022-11-04T16:02:59.051Z,99394.44
2022-11-04T16:06:02.360Z,99394.03
2022-11-04T16:09:02.611Z,99400.81
2022-11-04T16:12:15.504Z,99391.59
2022-11-04T16:15:05.593Z,99394.34
2022-11-04T16:17:54.147Z,99393.47
2022-11-04T16:20:46.088Z,99406.28
2022-11-04T16:23:40.712Z,99418.31
2022-11-04T16:26:31.604Z,99404.81
2022-11-04T16:29:23.566Z,99413.38
2022-11-04T16:32:18.152Z,99408.09
2022-11-04T16:35:15.306Z,99414.94
2022-11-04T16:38:05.066Z,99409.06
2022-11-04T16:40:53.554Z,99420.75
2022-11-04T16:43:44.512Z,99424.09
2022-11-04T16:46:33.577Z,99430.53
2022-11-04T16:49:24.512Z,99435.06
2022-11-04T16:52:15.787Z,99434.22
2022-11-04T16:55:06.293Z,99447.50
2022-11-04T16:57:59.564Z,99446.91
2022-11-04T17:00:48.112Z,99455.38
2022-11-04T17:03:37.245Z,99452.69
2022-11-04T17:06:26.252Z,99458.91
2022-11-04T17:09:21.365Z,99461.75
2022-11-04T17:12:11.225Z,99462.53
2022-11-04T17:14:59.734Z,99471.44
2022-11-04T17:17:48.382Z,99465.44
2022-11-04T17:20:39.219Z,99472.22
2022-11-04T17:23:27.708Z,99464.88
2022-11-04T17:26:16.286Z,99477.59
2022-11-04T17:29:06.254Z,99496.16
2022-11-04T17:31:55.704Z,99489.97
2022-11-04T17:34:44.162Z,99479.31
2022-11-04T17:37:32.667Z,99491.00
2022-11-04T17:40:23.341Z,99503.22
2022-11-04T17:43:29.044Z,99509.41
2022-11-04T17:46:38.034Z,99513.19
2022-11-04T17:49:27.529Z,99512.59
2022-11-04T17:52:15.999Z,99526.00
2022-11-04T17:55:05.304Z,99520.25
2022-11-04T17:57:53.763Z,99519.44
2022-11-04T18:00:42.217Z,99513.63
2022-11-04T18:03:32.076Z,99376.66
2022-11-04T18:06:20.747Z,99531.97
2022-11-04T18:09:10.890Z,99531.34
2022-11-04T18:12:17.158Z,99542.91
2022-11-04T18:15:06.728Z,99532.44
2022-11-04T18:17:55.187Z,99527.91
2022-11-04T18:20:45.053Z,99554.25
2022-11-04T18:23:33.565Z,99557.38
2022-11-04T18:26:22.567Z,99563.53
2022-11-04T18:29:11.293Z,99570.16
2022-11-04T18:32:01.274Z,99565.63
2022-11-04T18:34:50.653Z,99563.81
2022-11-04T18:37:46.723Z,99570.38
2022-11-04T18:40:35.963Z,99546.03
2022-11-04T18:43:24.597Z,99549.97
2022-11-04T18:46:15.522Z,99563.16
2022-11-04T18:49:04.327Z,99582.41
2022-11-04T18:51:52.784Z,99580.16
2022-11-04T18:54:43.596Z,99589.44
2022-11-04T18:57:32.075Z,99597.50
2022-11-04T19:00:20.720Z,99580.78
2022-11-04T19:03:10.797Z,99588.63
2022-11-04T19:05:59.274Z,99606.13
2022-11-04T19:08:50.416Z,99606.13
2022-11-04T19:11:41.255Z,99605.91
2022-11-04T19:14:29.774Z,99600.41
2022-11-04T19:17:18.385Z,99615.22
2022-11-04T19:20:12.296Z,99615.81
2022-11-04T19:23:01.436Z,99611.09
2022-11-04T19:25:50.438Z,99611.25
2022-11-04T19:28:48.245Z,99613.94
2022-11-04T19:31:38.594Z,99579.06
2022-11-04T19:34:27.152Z,99601.47
2022-11-04T19:37:15.679Z,99625.94
2022-11-04T19:40:06.147Z,99627.56
2022-11-04T19:43:12.998Z,99641.63
2022-11-04T19:46:04.818Z,99590.44
2022-11-04T19:48:53.562Z,99540.91
2022-11-04T19:51:42.143Z,99654.22
2022-11-04T19:54:30.902Z,99642.09
2022-11-04T19:57:19.419Z,99638.66
2022-11-04T20:00:09.685Z,99629.00
2022-11-04T20:02:59.922Z,99659.50
2022-11-04T20:05:48.403Z,99671.53
2022-11-04T20:08:37.009Z,99685.38
2022-11-04T20:11:25.464Z,99693.63
2022-11-04T20:14:12.999Z,99696.50
2022-11-04T20:17:02.639Z,99694.25
2022-11-04T20:19:52.479Z,99706.19
2022-11-04T20:22:41.109Z,99659.69
2022-11-04T20:25:30.047Z,99707.81
2022-11-04T20:28:18.508Z,99717.47
2022-11-04T20:31:14.490Z,99723.63
2022-11-04T20:34:04.931Z,99726.50
2022-11-04T20:36:54.825Z,99724.47
2022-11-04T20:39:43.746Z,99724.09
2022-11-04T20:42:32.260Z,99723.53
2022-11-04T20:45:21.214Z,99740.19
2022-11-04T20:48:09.958Z,99693.09
2022-11-04T20:50:58.627Z,99748.03
2022-11-04T20:53:48.859Z,99752.97
2022-11-04T20:56:38.953Z,99758.97
2022-11-04T20:59:27.586Z,99754.16
2022-11-04T21:02:16.257Z,99752.97
2022-11-04T21:05:05.170Z,99762.88
2022-11-04T21:07:53.621Z,99749.31
2022-11-04T21:10:43.422Z,99762.72
2022-11-04T21:13:33.088Z,99778.59
2022-11-04T21:16:21.744Z,99764.97
2022-11-04T21:19:11.809Z,99776.94
2022-11-04T21:22:00.271Z,99782.53
2022-11-04T21:24:48.738Z,99786.41
2022-11-04T21:27:38.491Z,99664.59
2022-11-04T21:30:32.885Z,99775.06
2022-11-04T21:33:22.013Z,99789.31
2022-11-04T21:36:12.821Z,99801.09
2022-11-04T21:39:01.538Z,99799.19
2022-11-04T21:41:49.971Z,99808.25
2022-11-04T21:44:39.742Z,99805.41
2022-11-04T21:47:28.202Z,99804.78
2022-11-04T21:50:18.174Z,99817.75
2022-11-04T21:53:06.807Z,99815.28
2022-11-04T21:55:55.247Z,99805.25
2022-11-04T21:58:44.028Z,99815.97
2022-11-04T22:01:34.003Z,99808.97
2022-11-04T22:04:22.586Z,99821.53
2022-11-04T22:07:11.116Z,99790.25
2022-11-04T22:09:59.887Z,99819.69
2022-11-04T22:12:51.226Z,99793.97
2022-11-04T22:16:02.940Z,99819.47
2022-11-04T22:18:54.217Z,99819.50
2022-11-04T22:21:44.505Z,99813.75
2022-11-04T22:24:32.926Z,99825.09
2022-11-04T22:27:24.078Z,99823.22
2022-11-04T22:30:13.290Z,99812.69
2022-11-04T22:33:01.918Z,99841.16
2022-11-04T22:35:51.754Z,99846.53
2022-11-04T22:38:41.582Z,99840.38
2022-11-04T22:41:31.653Z,99831.09
2022-11-04T22:44:20.123Z,99838.31
2022-11-04T22:47:08.586Z,99846.94
2022-11-04T22:49:57.076Z,99851.28
2022-11-04T22:52:47.083Z,99842.38
2022-11-04T22:55:36.627Z,99828.38
2022-11-04T22:58:25.070Z,99852.91
2022-11-04T23:01:16.452Z,99854.13
2022-11-04T23:04:05.437Z,99851.03
2022-11-04T23:06:53.926Z,99844.03
2022-11-04T23:09:57.670Z,99854.13
2022-11-04T23:13:03.712Z,99857.41
2022-11-04T23:16:07.274Z,99860.94
2022-11-04T23:18:55.692Z,99858.25
2022-11-04T23:22:01.797Z,99868.97
2022-11-04T23:25:06.822Z,99863.97
2022-11-04T23:28:16.229Z,99870.41
2022-11-04T23:31:04.648Z,99819.53
2022-11-04T23:34:10.662Z,99873.91
2022-11-04T23:37:14.236Z,99855.78
2022-11-04T23:40:04.295Z,99881.53
2022-11-04T23:42:52.698Z,99869.16
2022-11-04T23:45:58.766Z,99882.19
2022-11-04T23:49:04.608Z,99884.63
2022-11-04T23:52:09.859Z,99894.53
2022-11-04T23:55:15.800Z,99891.25
2022-11-04T23:58:23.081Z,99887.97
